createdAt,value
2023-05-19T00:02:51.138Z,10.03
2023-05-19T00:05:55.972Z,14.80
2023-05-19T00:09:01.256Z,9.10
2023-05-19T00:12:05.124Z,8.80
2023-05-19T00:15:11.850Z,7.73
2023-05-19T00:18:16.751Z,14.00
2023-05-19T00:21:20.102Z,8.90
2023-05-19T00:24:23.312Z,7.60
2023-05-19T00:27:26.713Z,7.40
2023-05-19T00:30:31.763Z,8.20
2023-05-19T00:33:35.455Z,7.37
2023-05-19T00:36:38.695Z,8.10
2023-05-19T00:39:41.968Z,7.83
2023-05-19T00:42:44.914Z,7.93
2023-05-19T00:45:49.785Z,9.23
2023-05-19T00:48:53.439Z,8.10
2023-05-19T00:51:57.561Z,8.40
2023-05-19T00:55:01.376Z,8.53
2023-05-19T00:58:06.088Z,13.73
2023-05-19T01:01:12.415Z,7.87
2023-05-19T01:04:17.349Z,12.50
2023-05-19T01:07:21.445Z,7.70
2023-05-19T01:10:24.873Z,8.93
2023-05-19T01:13:30.670Z,7.10
2023-05-19T01:16:41.540Z,8.40
2023-05-19T01:19:57.530Z,9.03
2023-05-19T01:23:36.956Z,9.50
2023-05-19T01:27:24.262Z,9.23
2023-05-19T01:30:35.189Z,8.20
2023-05-19T01:33:41.106Z,7.80
2023-05-19T01:36:45.979Z,8.90
2023-05-19T01:39:50.353Z,8.37
2023-05-19T01:42:57.392Z,8.37
2023-05-19T01:46:03.790Z,7.97
2023-05-19T01:49:07.781Z,8.00
2023-05-19T01:52:11.066Z,7.53
2023-05-19T01:55:14.514Z,8.00
2023-05-19T01:58:24.043Z,8.53
2023-05-19T02:01:35.421Z,10.97
2023-05-19T02:04:45.472Z,9.63
2023-05-19T02:07:59.307Z,8.50
2023-05-19T02:11:09.339Z,8.50
2023-05-19T02:14:17.519Z,8.13
2023-05-19T02:17:24.628Z,8.50
2023-05-19T02:20:28.074Z,8.00
2023-05-19T02:23:31.331Z,8.23
2023-05-19T02:26:34.472Z,8.50
2023-05-19T02:29:37.655Z,9.70
2023-05-19T02:32:42.175Z,10.10
2023-05-19T02:35:45.380Z,7.63
2023-05-19T02:38:50.310Z,8.97
2023-05-19T02:41:53.409Z,8.27
2023-05-19T02:44:56.803Z,8.07
2023-05-19T02:48:01.527Z,10.40
2023-05-19T02:51:05.445Z,10.70
2023-05-19T02:54:08.604Z,9.63
2023-05-19T02:57:12.032Z,9.63
2023-05-19T03:00:16.233Z,9.30
2023-05-19T03:03:20.855Z,8.93
2023-05-19T03:06:24.465Z,10.20
2023-05-19T03:09:27.579Z,8.97
2023-05-19T03:12:31.775Z,10.40
2023-05-19T03:15:35.353Z,10.47
2023-05-19T03:18:40.007Z,10.10
2023-05-19T03:21:43.103Z,12.77
2023-05-19T03:24:46.284Z,16.70
2023-05-19T03:27:49.492Z,40.47
2023-05-19T03:30:52.658Z,28.90
2023-05-19T03:33:57.978Z,23.83
2023-05-19T03:37:01.060Z,23.97
2023-05-19T03:40:05.769Z,23.50
2023-05-19T03:43:09.198Z,19.40
2023-05-19T03:46:12.348Z,21.03
2023-05-19T03:49:17.032Z,23.03
2023-05-19T03:52:20.256Z,23.13
2023-05-19T03:55:23.500Z,33.00
2023-05-19T03:58:26.867Z,19.80
2023-05-19T04:01:30.101Z,17.27
2023-05-19T04:04:34.807Z,11.77
2023-05-19T04:07:37.994Z,14.97
2023-05-19T04:10:41.313Z,48.87
2023-05-19T04:13:45.254Z,28.13
2023-05-19T04:16:48.591Z,18.30
2023-05-19T04:19:53.187Z,17.87
2023-05-19T04:22:56.331Z,16.93
2023-05-19T04:26:00.614Z,16.33
2023-05-19T04:29:04.952Z,29.07
2023-05-19T04:32:08.546Z,24.73
2023-05-19T04:35:13.804Z,20.17
2023-05-19T04:38:19.072Z,100.07
2023-05-19T04:41:23.127Z,82.33
2023-05-19T04:44:26.349Z,48.20
2023-05-19T04:47:30.231Z,43.80
2023-05-19T04:50:35.530Z,62.83
2023-05-19T04:53:40.375Z,48.07
2023-05-19T04:56:43.877Z,32.90
2023-05-19T04:59:47.375Z,18.07
2023-05-19T05:02:51.039Z,17.00
2023-05-19T05:05:56.854Z,13.60
2023-05-19T05:09:00.778Z,10.40
2023-05-19T05:12:04.817Z,11.93
2023-05-19T05:15:09.319Z,8.77
2023-05-19T05:18:13.256Z,10.77
2023-05-19T05:21:18.422Z,11.73
2023-05-19T05:24:22.214Z,10.37
2023-05-19T05:27:25.392Z,10.17
2023-05-19T05:30:28.509Z,9.47
2023-05-19T05:33:31.706Z,10.40
2023-05-19T05:36:36.311Z,8.73
2023-05-19T05:39:39.471Z,9.20
2023-05-19T05:42:43.009Z,9.87
2023-05-19T05:45:46.307Z,9.27
2023-05-19T05:48:50.284Z,9.33
2023-05-19T05:52:05.480Z,10.00
2023-05-19T05:55:10.926Z,9.50
2023-05-19T05:58:14.927Z,8.80
2023-05-19T06:01:24.192Z,8.50
2023-05-19T06:04:27.377Z,8.33
2023-05-19T06:07:32.003Z,15.73
2023-05-19T06:10:35.745Z,78.73
2023-05-19T06:13:41.463Z,28.17
2023-05-19T06:16:44.650Z,32.73
2023-05-19T06:19:48.248Z,30.37
2023-05-19T06:22:53.044Z,17.13
2023-05-19T06:25:56.402Z,23.10
2023-05-19T06:28:59.587Z,23.57
2023-05-19T06:32:02.825Z,21.07
2023-05-19T06:35:06.935Z,13.60
2023-05-19T06:38:11.546Z,10.40
2023-05-19T06:41:14.910Z,11.10
2023-05-19T06:44:20.437Z,16.40
2023-05-19T06:47:24.275Z,34.93
2023-05-19T06:50:27.725Z,18.00
2023-05-19T06:53:32.404Z,43.17
2023-05-19T06:56:36.535Z,28.23
2023-05-19T06:59:40.970Z,23.13
2023-05-19T07:02:44.313Z,15.13
2023-05-19T07:05:48.137Z,21.23
2023-05-19T07:08:52.715Z,21.90
2023-05-19T07:11:56.619Z,23.93
2023-05-19T07:14:59.808Z,26.07
2023-05-19T07:18:03.061Z,19.10
2023-05-19T07:21:07.384Z,21.33
2023-05-19T07:24:11.969Z,19.50
2023-05-19T07:27:15.503Z,23.70
2023-05-19T07:30:18.675Z,17.57
2023-05-19T07:33:21.850Z,12.43
2023-05-19T07:36:25.102Z,13.27
2023-05-19T07:39:29.918Z,11.47
2023-05-19T07:42:33.116Z,11.80
2023-05-19T07:45:36.414Z,14.70
2023-05-19T07:48:39.646Z,35.43
2023-05-19T07:51:43.019Z,22.90
2023-05-19T07:54:47.704Z,19.73
2023-05-19T07:57:51.025Z,17.60
2023-05-19T08:00:54.162Z,15.43
2023-05-19T08:03:57.905Z,22.33
2023-05-19T08:07:01.138Z,19.10
2023-05-19T08:10:06.314Z,16.60
2023-05-19T08:13:09.428Z,18.73
2023-05-19T08:16:12.648Z,15.23
2023-05-19T08:19:15.996Z,12.90
2023-05-19T08:22:19.208Z,13.77
2023-05-19T08:25:23.781Z,12.10
2023-05-19T08:28:27.058Z,12.20
2023-05-19T08:31:30.532Z,21.57
2023-05-19T08:34:33.772Z,20.97
2023-05-19T08:37:38.767Z,22.70
2023-05-19T08:40:44.134Z,29.47
2023-05-19T08:43:47.376Z,21.07
2023-05-19T08:46:51.250Z,30.37
2023-05-19T08:50:07.781Z,17.73
2023-05-19T08:53:31.880Z,22.47
2023-05-19T08:56:39.546Z,24.07
2023-05-19T08:59:44.906Z,22.63
2023-05-19T09:03:00.283Z,13.50
2023-05-19T09:06:09.657Z,13.63
2023-05-19T09:09:13.129Z,14.07
2023-05-19T09:12:17.669Z,22.80
2023-05-19T09:15:20.770Z,11.50
2023-05-19T09:18:25.753Z,12.20
2023-05-19T09:21:31.621Z,15.53
2023-05-19T09:24:36.093Z,20.10
2023-05-19T09:27:40.578Z,23.13
2023-05-19T09:30:43.774Z,20.83
2023-05-19T09:33:46.892Z,13.40
2023-05-19T09:36:50.909Z,23.10
2023-05-19T09:39:54.668Z,16.60
2023-05-19T09:42:59.180Z,23.47
2023-05-19T09:46:04.963Z,24.27
2023-05-19T09:49:10.771Z,20.37
2023-05-19T09:52:17.882Z,19.83
2023-05-19T09:55:23.262Z,18.90
2023-05-19T09:58:28.288Z,23.13
2023-05-19T10:01:33.717Z,19.40
2023-05-19T10:04:37.594Z,17.60
2023-05-19T10:07:42.181Z,20.33
2023-05-19T10:10:48.127Z,14.70
2023-05-19T10:13:53.447Z,26.27
2023-05-19T10:16:58.247Z,21.97
2023-05-19T10:20:02.419Z,19.73
2023-05-19T10:23:05.579Z,20.20
2023-05-19T10:26:10.037Z,18.93
2023-05-19T10:29:18.727Z,16.07
2023-05-19T10:32:28.159Z,19.63
2023-05-19T10:36:10.968Z,24.73
2023-05-19T10:39:19.149Z,20.90
2023-05-19T10:42:33.442Z,21.03
2023-05-19T10:45:43.373Z,21.53
2023-05-19T10:48:47.510Z,24.40
2023-05-19T10:51:50.982Z,24.63
2023-05-19T10:54:54.888Z,22.03
2023-05-19T10:57:58.381Z,27.70
2023-05-19T11:01:03.327Z,25.70
2023-05-19T11:04:08.110Z,28.53
2023-05-19T11:07:11.470Z,34.07
2023-05-19T11:10:14.837Z,28.60
2023-05-19T11:13:23.159Z,34.80
2023-05-19T11:16:32.787Z,44.20
2023-05-19T11:19:37.436Z,40.40
2023-05-19T11:22:41.395Z,34.20
2023-05-19T11:25:47.162Z,42.27
2023-05-19T11:28:50.845Z,55.67
2023-05-19T11:31:56.043Z,41.13
2023-05-19T11:34:59.269Z,37.43
2023-05-19T11:38:03.272Z,38.40
2023-05-19T11:41:06.611Z,41.37
2023-05-19T11:44:12.428Z,59.60
2023-05-19T11:47:17.725Z,41.73
2023-05-19T11:50:21.347Z,49.80
2023-05-19T11:53:25.079Z,50.07
2023-05-19T11:56:28.185Z,44.47
2023-05-19T11:59:33.445Z,57.27
2023-05-19T12:02:40.161Z,52.43
2023-05-19T12:05:46.063Z,34.53
2023-05-19T12:08:52.564Z,39.87
2023-05-19T12:11:56.694Z,50.10
2023-05-19T12:14:59.852Z,43.83
2023-05-19T12:18:04.796Z,39.93
2023-05-19T12:21:08.142Z,35.80
2023-05-19T12:24:11.331Z,34.47
2023-05-19T12:27:19.633Z,28.17
2023-05-19T12:30:28.688Z,99.67
2023-05-19T12:33:35.673Z,117.30
2023-05-19T12:36:39.527Z,82.37
2023-05-19T12:39:43.945Z,64.27
2023-05-19T12:42:48.746Z,63.83
2023-05-19T12:45:52.466Z,70.60
2023-05-19T12:49:00.832Z,59.70
2023-05-19T12:52:07.092Z,65.87
2023-05-19T12:55:14.412Z,53.83
2023-05-19T12:58:17.822Z,48.17
2023-05-19T13:01:21.094Z,46.40
2023-05-19T13:04:26.364Z,57.30
2023-05-19T13:07:29.734Z,52.07
2023-05-19T13:10:33.332Z,42.87
2023-05-19T13:13:37.130Z,41.50
2023-05-19T13:16:40.340Z,33.03
2023-05-19T13:19:44.981Z,39.77
2023-05-19T13:22:48.839Z,28.53
2023-05-19T13:25:52.913Z,29.40
2023-05-19T13:28:56.022Z,25.97
2023-05-19T13:32:01.186Z,27.67
2023-05-19T13:35:06.969Z,31.30
2023-05-19T13:38:11.207Z,23.80
2023-05-19T13:41:16.003Z,23.50
2023-05-19T13:44:19.367Z,26.40
2023-05-19T13:51:49.983Z,25.53
2023-05-19T13:59:18.920Z,25.87
2023-05-19T14:02:22.181Z,13.83
2023-05-19T14:05:25.441Z,13.33
2023-05-19T14:08:30.014Z,11.80
2023-05-19T14:11:33.356Z,14.37
2023-05-19T14:14:36.642Z,12.63
2023-05-19T14:17:39.909Z,17.27
2023-05-19T14:20:43.118Z,14.43
2023-05-19T14:23:47.736Z,58.10
2023-05-19T14:26:51.233Z,50.07
2023-05-19T14:29:54.322Z,43.73
2023-05-19T14:32:58.111Z,28.20
2023-05-19T14:36:01.833Z,30.23
2023-05-19T14:39:06.587Z,26.60
2023-05-19T14:42:10.594Z,30.57
2023-05-19T14:45:14.188Z,15.87
2023-05-19T14:48:17.672Z,95.13
2023-05-19T14:51:20.988Z,29.20
2023-05-19T14:54:25.605Z,22.23
2023-05-19T14:57:28.773Z,12.73
2023-05-19T15:00:32.268Z,22.87
2023-05-19T15:03:35.932Z,26.63
2023-05-19T15:06:39.195Z,16.13
2023-05-19T15:09:43.878Z,12.50
2023-05-19T15:12:47.082Z,13.23
2023-05-19T15:15:50.424Z,13.10
2023-05-19T15:18:53.721Z,17.20
2023-05-19T15:21:56.955Z,18.30
2023-05-19T15:25:01.625Z,13.67
2023-05-19T15:28:05.190Z,20.43
2023-05-19T15:31:08.843Z,11.87
2023-05-19T15:34:12.088Z,15.00
2023-05-19T15:37:15.517Z,22.10
2023-05-19T15:40:20.648Z,23.27
2023-05-19T15:43:23.775Z,32.33
2023-05-19T15:46:27.442Z,37.63
2023-05-19T15:49:30.676Z,25.00
2023-05-19T15:52:34.081Z,16.70
2023-05-19T15:55:38.756Z,21.47
2023-05-19T15:58:42.554Z,14.63
2023-05-19T16:01:45.757Z,15.47
2023-05-19T16:04:49.083Z,17.13
2023-05-19T16:07:52.605Z,10.50
2023-05-19T16:10:57.475Z,11.90
2023-05-19T16:14:00.626Z,28.53
2023-05-19T16:17:04.020Z,19.00
2023-05-19T16:20:08.520Z,15.67
2023-05-19T16:23:11.917Z,22.50
2023-05-19T16:26:17.001Z,21.10
2023-05-19T16:29:20.117Z,16.03
2023-05-19T16:32:23.707Z,16.43
2023-05-19T16:35:27.947Z,22.57
2023-05-19T16:38:31.140Z,17.77
2023-05-19T16:41:35.717Z,13.73
2023-05-19T16:44:38.866Z,15.03
2023-05-19T16:47:41.934Z,11.73
2023-05-19T16:50:45.276Z,14.17
2023-05-19T16:53:48.759Z,13.73
2023-05-19T16:56:53.726Z,17.00
2023-05-19T16:59:56.820Z,18.57
2023-05-19T17:03:02.119Z,26.23
2023-05-19T17:06:05.321Z,50.10
2023-05-19T17:09:08.550Z,39.37
2023-05-19T17:12:13.470Z,28.47
2023-05-19T17:15:17.025Z,22.80
2023-05-19T17:18:20.136Z,23.17
2023-05-19T17:21:23.238Z,28.40
2023-05-19T17:24:26.399Z,35.33
2023-05-19T17:27:30.945Z,29.23
2023-05-19T17:30:34.705Z,41.73
2023-05-19T17:33:38.171Z,50.97
2023-05-19T17:36:41.592Z,33.47
2023-05-19T17:39:44.700Z,24.60
2023-05-19T17:42:49.184Z,25.23
2023-05-19T17:45:52.541Z,24.80
2023-05-19T17:48:55.714Z,25.97
2023-05-19T17:51:59.390Z,20.30
2023-05-19T17:55:03.120Z,21.33
2023-05-19T17:58:08.225Z,24.30
2023-05-19T18:01:11.824Z,21.13
2023-05-19T18:04:16.252Z,20.87
2023-05-19T18:07:19.554Z,17.60
2023-05-19T18:10:26.727Z,22.03
2023-05-19T18:13:31.250Z,25.77
2023-05-19T18:16:34.579Z,17.03
2023-05-19T18:19:37.762Z,20.93
2023-05-19T18:22:40.860Z,20.73
2023-05-19T18:25:50.557Z,27.30
2023-05-19T18:28:55.117Z,20.47
2023-05-19T18:31:58.304Z,16.63
2023-05-19T18:35:01.447Z,16.20
2023-05-19T18:38:04.654Z,12.50
2023-05-19T18:41:08.080Z,21.43
2023-05-19T18:44:12.757Z,18.83
2023-05-19T18:47:16.260Z,11.53
2023-05-19T18:50:19.485Z,18.87
2023-05-19T18:53:22.875Z,25.03
2023-05-19T18:56:26.461Z,23.27
2023-05-19T18:59:31.082Z,22.77
2023-05-19T19:02:34.398Z,32.17
2023-05-19T19:05:37.577Z,37.37
2023-05-19T19:08:40.753Z,43.87
2023-05-19T19:11:43.876Z,32.93
2023-05-19T19:14:48.441Z,31.67
2023-05-19T19:17:51.678Z,38.63
2023-05-19T19:20:54.975Z,33.27
2023-05-19T19:23:58.691Z,36.47
2023-05-19T19:27:01.839Z,30.20
2023-05-19T19:30:07.693Z,36.23
2023-05-19T19:33:11.252Z,26.70
2023-05-19T19:36:14.459Z,20.10
2023-05-19T19:39:17.638Z,17.93
2023-05-19T19:42:20.864Z,151.77
2023-05-19T19:45:25.354Z,53.43
2023-05-19T19:48:28.786Z,44.07
2023-05-19T19:51:32.443Z,34.90
2023-05-19T19:54:35.679Z,32.00
2023-05-19T19:57:38.798Z,31.93
2023-05-19T20:00:43.304Z,35.27
2023-05-19T20:03:46.530Z,26.83
2023-05-19T20:06:49.850Z,26.83
2023-05-19T20:09:53.384Z,20.80
2023-05-19T20:12:58.869Z,24.57
2023-05-19T20:16:03.646Z,21.33
2023-05-19T20:19:09.196Z,21.93
2023-05-19T20:22:12.656Z,29.90
2023-05-19T20:25:15.955Z,21.10
2023-05-19T20:28:19.301Z,19.97
2023-05-19T20:31:25.939Z,20.27
2023-05-19T20:34:29.109Z,20.27
2023-05-19T20:37:32.306Z,20.77
2023-05-19T20:40:35.506Z,25.10
2023-05-19T20:43:38.656Z,16.87
2023-05-19T20:46:43.169Z,18.67
2023-05-19T20:49:46.625Z,13.30
2023-05-19T20:52:49.700Z,15.03
2023-05-19T20:55:52.895Z,16.70
2023-05-19T20:58:56.293Z,19.97
2023-05-19T21:02:00.912Z,25.30
2023-05-19T21:05:04.516Z,50.40
2023-05-19T21:08:12.968Z,80.40
2023-05-19T21:11:16.825Z,84.40
2023-05-19T21:14:20.040Z,152.70
2023-05-19T21:17:24.537Z,45.43
2023-05-19T21:20:29.257Z,45.77
2023-05-19T21:23:32.405Z,39.40
2023-05-19T21:26:35.626Z,43.87
2023-05-19T21:29:38.767Z,28.17
2023-05-19T21:32:43.451Z,34.10
2023-05-19T21:35:46.900Z,23.47
2023-05-19T21:38:50.262Z,24.23
2023-05-19T21:41:53.375Z,22.13
2023-05-19T21:44:56.684Z,23.93
2023-05-19T21:48:01.296Z,19.83
2023-05-19T21:51:04.583Z,17.00
2023-05-19T21:54:07.712Z,13.23
2023-05-19T21:57:11.251Z,17.50
2023-05-19T22:00:15.298Z,22.47
2023-05-19T22:03:20.230Z,14.80
2023-05-19T22:06:23.418Z,16.47
2023-05-19T22:09:26.552Z,12.17
2023-05-19T22:12:29.694Z,11.67
2023-05-19T22:15:32.872Z,13.63
2023-05-19T22:18:37.444Z,11.53
2023-05-19T22:21:40.587Z,10.60
2023-05-19T22:24:43.863Z,11.13
2023-05-19T22:27:47.000Z,18.60
2023-05-19T22:30:50.149Z,22.23
2023-05-19T22:33:54.747Z,11.80
2023-05-19T22:36:57.988Z,14.20
2023-05-19T22:40:01.193Z,13.80
2023-05-19T22:43:04.376Z,10.50
2023-05-19T22:46:07.516Z,12.67
2023-05-19T22:49:12.089Z,10.13
2023-05-19T22:52:15.181Z,8.43
2023-05-19T22:55:18.335Z,7.63
2023-05-19T22:58:21.568Z,13.47
2023-05-19T23:01:24.818Z,7.90
2023-05-19T23:04:29.644Z,10.00
2023-05-19T23:07:32.826Z,9.60
2023-05-19T23:10:36.030Z,7.60
2023-05-19T23:13:39.134Z,6.80
2023-05-19T23:16:42.313Z,7.90
2023-05-19T23:19:46.959Z,7.87
2023-05-19T23:22:50.096Z,7.30
2023-05-19T23:25:53.247Z,7.03
2023-05-19T23:28:58.647Z,7.47
2023-05-19T23:32:01.883Z,7.70
2023-05-19T23:35:14.201Z,7.13
2023-05-19T23:38:17.540Z,6.13
2023-05-19T23:41:22.472Z,6.40
2023-05-19T23:44:26.436Z,6.83
2023-05-19T23:47:29.517Z,7.70
2023-05-19T23:50:34.190Z,7.00
2023-05-19T23:53:37.300Z,6.47
2023-05-19T23:56:40.380Z,6.97
2023-05-19T23:59:43.484Z,7.20
